Time;durP1;ratioP1;P1;durP2;ratioP2;P2;SDS_P1;SDS_P2;PMS_P1;PMS_P2;Temp;Humidity;BMP_temperature;BMP_pressure;BME280_temperature;BME280_humidity;BME280_pressure;Samples;Min_cycle;Max_cycle;Signal;HPM_P1;HPM_P2
2023/12/25 14:53:00;;;;;;;0.00;0.00;;;;;;;;;;5083323;27;1670130;-95
2023/12/25 14:55:27;;;;;;;0.00;0.00;;;;;;;;;;5117308;28;20275;-95
2023/12/25 14:57:52;;;;;;;0.00;0.00;;;10.40;99.90;;;;;;5117752;28;20167;-95
2023/12/25 15:00:18;;;;;;;0.00;0.00;;;10.40;99.90;;;;;;5102327;28;20285;-96
2023/12/25 15:02:44;;;;;;;0.10;0.00;;;10.50;99.90;;;;;;5128059;28;20197;-93
2023/12/25 15:05:10;;;;;;;0.00;0.00;;;10.60;99.90;;;;;;5135584;28;20167;-96
2023/12/25 15:07:36;;;;;;;0.00;0.00;;;10.70;99.90;;;;;;5134969;28;20159;-93
2023/12/25 15:10:02;;;;;;;0.00;0.00;;;10.50;99.90;;;;;;5118598;28;20169;-94
2023/12/25 15:12:28;;;;;;;0.00;0.00;;;10.50;99.90;;;;;;5114490;28;20199;-94
2023/12/25 15:14:54;;;;;;;0.00;0.00;;;10.50;99.90;;;;;;5114662;28;20194;-93
2023/12/25 15:17:20;;;;;;;0.00;0.00;;;10.60;99.90;;;;;;5114767;28;20167;-94
2023/12/25 15:19:46;;;;;;;0.00;0.00;;;10.80;99.90;;;;;;5114982;28;20180;-94
2023/12/25 15:22:12;;;;;;;0.00;0.00;;;10.60;99.90;;;;;;5109130;28;20168;-91
2023/12/25 15:24:37;;;;;;;0.00;0.00;;;10.60;99.90;;;;;;5105488;28;20168;-94
2023/12/25 15:27:04;;;;;;;0.00;0.00;;;10.70;99.90;;;;;;5112052;28;20164;-94
2023/12/25 15:29:30;;;;;;;0.00;0.00;;;10.70;99.90;;;;;;5105969;28;20176;-92
2023/12/25 15:31:55;;;;;;;0.00;0.00;;;10.70;99.90;;;;;;5107457;28;20265;-94
2023/12/25 15:34:21;;;;;;;0.17;0.00;;;10.70;99.90;;;;;;5109361;28;20271;-93
2023/12/25 15:36:47;;;;;;;0.00;0.00;;;10.80;99.90;;;;;;5114206;28;20237;-91
2023/12/25 15:39:12;;;;;;;0.10;0.00;;;10.80;99.90;;;;;;5113473;28;20187;-93
2023/12/25 15:41:38;;;;;;;0.00;0.00;;;10.80;99.90;;;;;;5114002;28;20176;-93
2023/12/25 15:44:04;;;;;;;0.00;0.00;;;10.50;99.90;;;;;;5113715;28;20179;-92
2023/12/25 15:46:30;;;;;;;0.00;0.00;;;10.80;99.90;;;;;;5109540;28;20184;-91
2023/12/25 15:48:55;;;;;;;0.20;0.10;;;10.90;99.90;;;;;;5111509;28;20156;-92
2023/12/25 15:51:23;;;;;;;0.00;0.00;;;10.80;99.90;;;;;;5110117;28;20289;-90
2023/12/25 15:53:49;;;;;;;0.00;0.00;;;10.80;99.90;;;;;;5111930;28;20203;-91
2023/12/25 15:56:15;;;;;;;0.07;0.00;;;10.80;99.90;;;;;;5109039;28;20176;-92
2023/12/25 15:58:41;;;;;;;0.10;0.10;;;10.70;99.90;;;;;;5108407;28;20152;-94
2023/12/25 16:01:07;;;;;;;0.00;0.00;;;10.70;99.90;;;;;;5107575;28;20178;-90
2023/12/25 16:03:33;;;;;;;0.00;0.00;;;10.70;99.90;;;;;;5098137;28;20193;-94
2023/12/25 16:05:59;;;;;;;0.30;0.20;;;10.70;99.90;;;;;;5093739;28;20160;-91
2023/12/25 16:08:25;;;;;;;0.00;0.00;;;10.70;99.90;;;;;;5093242;28;20161;-91
2023/12/25 16:10:50;;;;;;;0.00;0.00;;;10.70;99.90;;;;;;5095912;28;20208;-94
2023/12/25 16:13:17;;;;;;;0.03;0.00;;;10.80;99.90;;;;;;5088107;28;20195;-94
2023/12/25 16:15:43;;;;;;;0.00;0.00;;;10.70;99.90;;;;;;5064261;28;20269;-94
2023/12/25 16:18:08;;;;;;;0.00;0.00;;;10.80;99.90;;;;;;5083455;28;20219;-93
2023/12/25 16:20:34;;;;;;;0.00;0.00;;;10.80;99.90;;;;;;5088986;28;20264;-92
2023/12/25 16:23:01;;;;;;;0.00;0.00;;;10.80;99.90;;;;;;5081928;28;20192;-94
2023/12/25 16:25:27;;;;;;;0.70;0.13;;;10.90;99.90;;;;;;5085853;28;20176;-96
2023/12/25 16:27:52;;;;;;;0.00;0.00;;;10.90;99.90;;;;;;5085670;28;20547;-96
2023/12/25 16:30:19;;;;;;;0.00;0.00;;;10.90;99.90;;;;;;5084960;28;20236;-95
2023/12/25 16:32:45;;;;;;;0.00;0.00;;;10.90;99.90;;;;;;5088432;28;20228;-96
2023/12/25 16:35:10;;;;;;;0.00;0.00;;;10.90;99.90;;;;;;5085125;28;20180;-89
2023/12/25 16:37:36;;;;;;;0.00;0.00;;;10.90;99.90;;;;;;5085557;28;20228;-95
2023/12/25 16:40:05;;;;;;;0.00;0.00;;;10.90;99.90;;;;;;5083024;28;20247;-88
2023/12/25 16:42:31;;;;;;;0.00;0.00;;;10.90;99.90;;;;;;5081205;28;20177;-96
2023/12/25 16:44:56;;;;;;;0.00;0.00;;;11.00;99.90;;;;;;5086684;28;20237;-96
2023/12/25 16:47:22;;;;;;;0.00;0.00;;;10.90;99.90;;;;;;5087143;28;20243;-96
2023/12/25 16:49:48;;;;;;;0.00;0.00;;;11.00;99.90;;;;;;5085542;28;20496;-93
2023/12/25 16:52:13;;;;;;;0.00;0.00;;;10.90;99.90;;;;;;5085708;28;20564;-96
2023/12/25 16:54:40;;;;;;;0.00;0.00;;;10.90;99.90;;;;;;5081880;28;20726;-95
2023/12/25 16:57:06;;;;;;;0.00;0.00;;;10.90;99.90;;;;;;5081239;28;20181;-92
2023/12/25 16:59:31;;;;;;;0.00;0.00;;;10.90;99.90;;;;;;5081448;28;20183;-94
2023/12/25 17:01:57;;;;;;;0.20;0.00;;;10.90;99.90;;;;;;5079928;28;20215;-94
2023/12/25 17:04:23;;;;;;;0.00;0.00;;;10.80;99.90;;;;;;5080157;28;20173;-96
2023/12/25 17:06:49;;;;;;;0.00;0.00;;;10.40;99.90;;;;;;5079182;28;20165;-94
2023/12/25 17:09:14;;;;;;;0.00;0.00;;;10.80;99.90;;;;;;5077569;28;20171;-94
2023/12/25 17:11:41;;;;;;;0.00;0.00;;;10.80;99.90;;;;;;5081379;28;20697;-93
2023/12/25 17:14:06;;;;;;;0.00;0.00;;;10.80;99.90;;;;;;5088465;28;20169;-94
2023/12/25 17:16:33;;;;;;;0.30;0.00;;;10.70;99.90;;;;;;5095714;28;20164;-86
2023/12/25 17:18:58;;;;;;;0.00;0.00;;;10.70;99.90;;;;;;5080025;28;20685;-94
2023/12/25 17:21:24;;;;;;;0.03;0.00;;;10.70;99.90;;;;;;5078503;28;20185;-94
2023/12/25 17:23:50;;;;;;;0.30;0.00;;;10.70;99.90;;;;;;5090843;28;20179;-94
2023/12/25 17:26:15;;;;;;;0.10;0.00;;;10.50;99.90;;;;;;5101311;28;20198;-94
2023/12/25 17:28:45;;;;;;;0.00;0.00;;;10.50;99.90;;;;;;5097339;28;20616;-91
2023/12/25 17:31:11;;;;;;;0.10;0.00;;;10.50;99.90;;;;;;5082970;28;20757;-92
2023/12/25 17:33:36;;;;;;;0.10;0.00;;;10.50;99.90;;;;;;5081916;28;20230;-85
2023/12/25 17:36:03;;;;;;;0.00;0.00;;;10.50;99.90;;;;;;5079291;28;20698;-84
2023/12/25 17:38:29;;;;;;;0.00;0.00;;;10.50;99.90;;;;;;5077745;28;20241;-77
2023/12/25 17:40:55;;;;;;;0.00;0.00;;;10.40;99.90;;;;;;5073078;28;20647;-85
2023/12/25 17:43:21;;;;;;;0.00;0.00;;;10.50;99.90;;;;;;5070917;28;20177;-82
2023/12/25 17:45:48;;;;;;;0.40;0.07;;;10.50;99.90;;;;;;5078247;28;20219;-86
2023/12/25 17:48:22;;;;;;;0.10;0.00;;;10.50;99.90;;;;;;5082825;28;20177;-85
2023/12/25 17:50:51;;;;;;;0.07;0.00;;;10.50;99.90;;;;;;5075259;28;20184;-85
2023/12/25 17:53:18;;;;;;;0.10;0.00;;;10.50;99.90;;;;;;5083158;28;20275;-83
2023/12/25 17:55:44;;;;;;;0.67;0.00;;;10.40;99.90;;;;;;5080177;28;20160;-88
2023/12/25 17:58:10;;;;;;;0.00;0.00;;;10.40;99.90;;;;;;5102684;28;20179;-88
2023/12/25 18:00:35;;;;;;;0.10;0.03;;;10.40;99.90;;;;;;5082939;28;20183;-85
2023/12/25 18:03:01;;;;;;;0.00;0.00;;;10.40;99.90;;;;;;5089625;28;20247;-85
2023/12/25 18:05:27;;;;;;;0.10;0.00;;;10.40;99.90;;;;;;5090546;28;20187;-83
2023/12/25 18:07:53;;;;;;;0.23;0.00;;;10.40;99.90;;;;;;5104232;28;20187;-87
2023/12/25 18:10:18;;;;;;;0.20;0.10;;;10.40;99.90;;;;;;5085208;28;20184;-86
2023/12/25 18:12:44;;;;;;;0.10;0.00;;;10.40;99.90;;;;;;5076050;28;20697;-87
2023/12/25 18:15:10;;;;;;;0.00;0.00;;;10.40;99.90;;;;;;5073282;28;20168;-87
2023/12/25 18:17:36;;;;;;;0.30;0.00;;;10.40;99.90;;;;;;5085262;28;20190;-86
2023/12/25 18:20:03;;;;;;;0.00;0.00;;;10.30;99.90;;;;;;5092954;28;20175;-90
2023/12/25 18:22:28;;;;;;;0.30;0.10;;;10.30;99.90;;;;;;5092691;28;20187;-88
2023/12/25 18:24:57;;;;;;;0.13;0.00;;;10.30;99.90;;;;;;5092488;28;20171;-86
2023/12/25 18:27:23;;;;;;;0.47;0.10;;;10.30;99.90;;;;;;5092129;28;20693;-87
2023/12/25 18:29:49;;;;;;;0.00;0.00;;;10.30;99.90;;;;;;5079948;28;20259;-87
2023/12/25 18:32:15;;;;;;;0.00;0.00;;;10.30;99.90;;;;;;5072360;28;20212;-91
2023/12/25 18:34:40;;;;;;;0.00;0.00;;;10.30;99.90;;;;;;5071754;28;20322;-85
2023/12/25 18:37:06;;;;;;;0.00;0.00;;;10.30;99.90;;;;;;5081008;28;20634;-85
2023/12/25 18:39:32;;;;;;;0.20;0.10;;;10.20;99.90;;;;;;5090289;28;20168;-86
2023/12/25 18:41:58;;;;;;;0.27;0.00;;;10.20;99.90;;;;;;5091558;28;20176;-87
2023/12/25 18:44:23;;;;;;;0.13;0.10;;;10.20;99.90;;;;;;5091666;28;20654;-85
2023/12/25 18:46:49;;;;;;;0.77;0.13;;;10.20;99.90;;;;;;5091216;28;20187;-85
2023/12/25 18:49:14;;;;;;;0.90;0.20;;;10.10;99.90;;;;;;5086952;28;20180;-85
2023/12/25 18:51:40;;;;;;;0.57;0.20;;;10.10;99.90;;;;;;5090897;28;20234;-82
2023/12/25 18:54:06;;;;;;;0.60;0.20;;;10.20;99.90;;;;;;5094088;28;20183;-90
2023/12/25 18:56:31;;;;;;;0.20;0.10;;;10.20;99.90;;;;;;5092362;28;20255;-85
2023/12/25 18:58:57;;;;;;;0.50;0.20;;;10.10;99.90;;;;;;5091112;28;20240;-87
2023/12/25 19:01:23;;;;;;;0.30;0.10;;;10.10;99.90;;;;;;5091358;28;20172;-87
2023/12/25 19:03:48;;;;;;;1.20;0.20;;;10.10;99.90;;;;;;5083260;28;20218;-85
2023/12/25 19:06:14;;;;;;;0.50;0.10;;;10.10;99.90;;;;;;5091231;28;20172;-82
2023/12/25 19:08:40;;;;;;;0.50;0.10;;;10.20;99.90;;;;;;5091302;28;20180;-84
2023/12/25 19:11:06;;;;;;;0.57;0.20;;;10.20;99.90;;;;;;5091855;28;20207;-88
2023/12/25 19:13:31;;;;;;;0.73;0.10;;;10.20;99.90;;;;;;5091534;28;20175;-87
2023/12/25 19:15:57;;;;;;;0.77;0.10;;;10.30;99.90;;;;;;5089180;28;20241;-89
2023/12/25 19:18:23;;;;;;;1.63;0.23;;;10.30;99.90;;;;;;5092810;28;20186;-87
2023/12/25 19:20:49;;;;;;;0.90;0.30;;;10.30;99.90;;;;;;5092075;28;20210;-88
2023/12/25 19:23:19;;;;;;;0.57;0.13;;;10.30;99.90;;;;;;5091456;28;20251;-90
2023/12/25 19:25:45;;;;;;;0.43;0.10;;;10.40;99.90;;;;;;5091659;28;20179;-92
2023/12/25 19:28:11;;;;;;;0.87;0.20;;;10.40;99.90;;;;;;5091675;28;20587;-90
2023/12/25 19:30:36;;;;;;;0.63;0.20;;;10.40;99.90;;;;;;5093442;28;20187;-91
2023/12/25 19:33:02;;;;;;;0.53;0.10;;;10.40;99.90;;;;;;5086533;28;20652;-90
2023/12/25 19:35:28;;;;;;;0.47;0.20;;;10.40;99.90;;;;;;5073081;28;20727;-86
2023/12/25 19:37:54;;;;;;;0.20;0.13;;;10.40;99.90;;;;;;5085671;28;20211;-92
2023/12/25 19:40:19;;;;;;;0.70;0.07;;;10.40;99.90;;;;;;5075171;28;20180;-85
2023/12/25 19:42:45;;;;;;;1.63;0.33;;;10.40;99.90;;;;;;5077739;28;20658;-89
2023/12/25 19:45:11;;;;;;;0.50;0.20;;;10.40;99.90;;;;;;5080299;28;20719;-89
2023/12/25 19:47:37;;;;;;;0.37;0.20;;;10.30;99.90;;;;;;5077985;28;20181;-90
2023/12/25 19:50:03;;;;;;;0.03;0.00;;;9.90;99.90;;;;;;5076457;28;20172;-93
2023/12/25 19:52:32;;;;;;;0.87;0.30;;;10.10;99.90;;;;;;5075860;28;20227;-89
2023/12/25 19:54:57;;;;;;;0.40;0.10;;;10.00;99.90;;;;;;5090677;28;20180;-88
2023/12/25 19:57:23;;;;;;;1.93;1.40;;;9.90;99.90;;;;;;5094776;28;20646;-88
2023/12/25 19:59:49;;;;;;;0.10;0.00;;;9.90;99.90;;;;;;5096345;28;20684;-89
2023/12/25 20:02:15;;;;;;;0.10;0.10;;;9.90;99.90;;;;;;5074815;28;20176;-88
2023/12/25 20:04:40;;;;;;;0.17;0.10;;;10.00;99.90;;;;;;5075133;28;20176;-87
2023/12/25 20:07:06;;;;;;;0.73;0.23;;;10.00;99.90;;;;;;5074804;28;20196;-90
2023/12/25 20:09:32;;;;;;;0.60;0.30;;;10.00;99.90;;;;;;5085521;28;20541;-89
2023/12/25 20:11:59;;;;;;;0.93;0.30;;;10.10;99.90;;;;;;5085024;28;20691;-91
2023/12/25 20:14:24;;;;;;;0.87;0.30;;;10.10;99.90;;;;;;5090490;28;20164;-91
2023/12/25 20:16:50;;;;;;;0.60;0.20;;;10.00;99.90;;;;;;5076033;28;20183;-92
2023/12/25 20:19:17;;;;;;;0.90;0.20;;;9.90;99.90;;;;;;5079518;28;20175;-87
2023/12/25 20:21:42;;;;;;;1.90;0.50;;;9.90;99.90;;;;;;5096138;28;20192;-91
2023/12/25 20:24:08;;;;;;;1.47;0.40;;;9.90;99.90;;;;;;5094956;28;20334;-91
2023/12/25 20:26:34;;;;;;;1.43;0.50;;;9.80;99.90;;;;;;5096126;28;20580;-92
2023/12/25 20:29:00;;;;;;;2.00;0.40;;;9.80;99.90;;;;;;5110637;28;20168;-89
2023/12/25 20:31:26;;;;;;;2.00;0.60;;;9.80;99.90;;;;;;5103847;28;20204;-88
2023/12/25 20:33:51;;;;;;;1.47;0.47;;;9.80;99.90;;;;;;5091348;28;20173;-86
2023/12/25 20:36:17;;;;;;;1.37;0.40;;;9.80;99.90;;;;;;5106188;28;20176;-89
2023/12/25 20:38:43;;;;;;;1.20;0.50;;;9.80;99.90;;;;;;5082747;28;20172;-90
2023/12/25 20:41:11;;;;;;;2.93;0.60;;;9.90;99.90;;;;;;5090164;28;20180;-89
2023/12/25 20:43:37;;;;;;;3.13;0.77;;;9.90;99.90;;;;;;5095262;28;20186;-90
2023/12/25 20:46:03;;;;;;;2.30;0.40;;;9.90;99.90;;;;;;5094296;28;20172;-88
2023/12/25 20:48:29;;;;;;;2.80;0.77;;;9.90;99.90;;;;;;5094685;28;20171;-91
2023/12/25 20:50:55;;;;;;;2.20;0.80;;;9.90;99.90;;;;;;5074529;28;20264;-88
2023/12/25 20:53:20;;;;;;;3.00;0.90;;;9.90;99.90;;;;;;5075159;28;20168;-89
2023/12/25 20:55:46;;;;;;;1.20;0.47;;;9.90;99.90;;;;;;5074177;28;20180;-88
2023/12/25 20:58:12;;;;;;;2.77;0.80;;;9.90;99.90;;;;;;5072743;28;20168;-89
2023/12/25 21:00:38;;;;;;;4.73;1.17;;;9.90;99.90;;;;;;5071761;28;20267;-87
2023/12/25 21:03:04;;;;;;;4.43;1.10;;;9.90;99.90;;;;;;5072056;28;20252;-90
2023/12/25 21:05:32;;;;;;;2.77;0.67;;;9.40;99.90;;;;;;5074258;28;20183;-86
2023/12/25 21:07:58;;;;;;;3.83;0.90;;;9.90;99.90;;;;;;5083656;28;20570;-86
2023/12/25 21:10:26;;;;;;;5.40;1.10;;;9.90;99.90;;;;;;5074757;28;20655;-84
2023/12/25 21:12:52;;;;;;;5.67;1.20;;;9.90;99.90;;;;;;5076555;28;20243;-87
2023/12/25 21:15:18;;;;;;;3.67;0.83;;;9.90;99.90;;;;;;5079503;28;20618;-88
2023/12/25 21:17:43;;;;;;;4.23;1.03;;;9.90;99.90;;;;;;5075960;28;20185;-87
2023/12/25 21:20:10;;;;;;;3.97;1.10;;;9.90;99.90;;;;;;5083571;28;20176;-90
2023/12/25 21:22:36;;;;;;;4.13;1.03;;;10.00;99.90;;;;;;5108645;28;20176;-87
2023/12/25 21:25:02;;;;;;;6.63;1.40;;;9.90;99.90;;;;;;5108705;28;20535;-88
2023/12/25 21:27:28;;;;;;;5.03;1.40;;;9.90;99.90;;;;;;5103618;28;20214;-87
2023/12/25 21:29:53;;;;;;;5.17;1.43;;;10.00;99.90;;;;;;5085284;28;20196;-86
2023/12/25 21:32:19;;;;;;;4.03;1.13;;;10.00;99.90;;;;;;5095282;28;20204;-86
2023/12/25 21:34:45;;;;;;;4.20;1.40;;;10.00;99.90;;;;;;5097272;28;20542;-89
2023/12/25 21:37:11;;;;;;;4.73;1.23;;;10.00;99.90;;;;;;5084681;28;20234;-85
2023/12/25 21:39:37;;;;;;;4.37;1.17;;;10.00;99.90;;;;;;5076285;28;20207;-86
2023/12/25 21:42:04;;;;;;;3.93;1.30;;;10.00;99.90;;;;;;5088575;28;20183;-90
2023/12/25 21:44:30;;;;;;;5.53;1.27;;;10.00;99.90;;;;;;5085987;28;20254;-88
2023/12/25 21:46:56;;;;;;;4.60;1.40;;;10.00;99.90;;;;;;5097204;28;20603;-89
2023/12/25 21:49:21;;;;;;;8.20;2.13;;;9.90;99.90;;;;;;5088412;28;20173;-87
2023/12/25 21:51:47;;;;;;;7.13;1.57;;;9.90;99.90;;;;;;5076053;28;20758;-87
2023/12/25 21:54:13;;;;;;;5.30;1.50;;;9.90;99.90;;;;;;5072007;28;20177;-87
2023/12/25 21:56:39;;;;;;;7.27;1.77;;;9.80;99.90;;;;;;5071254;28;20168;-87
2023/12/25 21:59:05;;;;;;;6.20;1.57;;;10.00;99.90;;;;;;5072001;28;20242;-88
2023/12/25 22:01:32;;;;;;;5.90;1.60;;;9.80;99.90;;;;;;5072316;28;20177;-88
2023/12/25 22:03:57;;;;;;;9.37;2.07;;;9.80;99.90;;;;;;5071556;28;20184;-89
2023/12/25 22:06:23;;;;;;;5.27;1.60;;;9.80;99.90;;;;;;5073031;28;20172;-88
2023/12/25 22:08:49;;;;;;;7.17;1.77;;;9.80;99.90;;;;;;5083853;28;20204;-90
2023/12/25 22:11:14;;;;;;;7.70;1.90;;;9.80;99.90;;;;;;5084798;28;20211;-91
2023/12/25 22:13:40;;;;;;;9.23;2.03;;;9.70;99.90;;;;;;5091284;28;20259;-89
2023/12/25 22:16:06;;;;;;;6.77;2.03;;;9.70;99.90;;;;;;5081189;28;20178;-89
2023/12/25 22:18:32;;;;;;;8.83;1.87;;;9.70;99.90;;;;;;5087220;28;20168;-90
2023/12/25 22:20:58;;;;;;;10.07;2.70;;;9.60;99.90;;;;;;5091242;28;20183;-90
2023/12/25 22:23:24;;;;;;;5.93;1.87;;;9.60;99.90;;;;;;5090673;28;20190;-89
2023/12/25 22:25:50;;;;;;;5.00;2.13;;;9.60;99.90;;;;;;5089677;28;20262;-89
2023/12/25 22:28:18;;;;;;;6.37;2.57;;;9.60;99.90;;;;;;5101463;28;20175;-89
2023/12/25 22:30:45;;;;;;;7.53;2.80;;;9.60;99.90;;;;;;5109102;28;20172;-90
2023/12/25 22:33:10;;;;;;;9.17;2.90;;;9.60;99.90;;;;;;5097678;28;20207;-88
2023/12/25 22:35:36;;;;;;;7.70;2.87;;;9.60;99.90;;;;;;5106138;28;20176;-92
2023/12/25 22:38:02;;;;;;;7.33;2.90;;;9.60;99.90;;;;;;5098989;28;20179;-90
2023/12/25 22:40:28;;;;;;;6.60;3.13;;;9.60;99.90;;;;;;5113602;28;20172;-87
2023/12/25 22:42:54;;;;;;;5.60;3.03;;;9.60;99.90;;;;;;5094889;28;20171;-88
2023/12/25 22:45:19;;;;;;;6.87;3.10;;;9.60;99.90;;;;;;5090408;28;20773;-87
